createdAt,value
2022-10-19T00:00:29.195Z,95716.50
2022-10-19T00:02:55.601Z,95717.63
2022-10-19T00:05:22.069Z,95714.09
2022-10-19T00:07:48.481Z,95717.00
2022-10-19T00:10:14.901Z,95713.03
2022-10-19T00:12:41.310Z,95709.53
2022-10-19T00:15:08.292Z,95720.78
2022-10-19T00:17:35.534Z,95710.28
2022-10-19T00:20:02.179Z,95710.53
2022-10-19T00:22:28.586Z,95717.56
2022-10-19T00:24:56.935Z,95710.91
2022-10-19T00:27:23.353Z,95715.44
2022-10-19T00:29:49.725Z,95711.34
2022-10-19T00:32:16.168Z,95709.72
2022-10-19T00:34:42.608Z,95705.44
2022-10-19T00:37:08.983Z,95700.34
2022-10-19T00:39:35.424Z,95709.97
2022-10-19T00:42:02.025Z,95701.31
2022-10-19T00:44:28.424Z,95707.78
2022-10-19T00:46:59.012Z,95715.88
2022-10-19T00:49:39.334Z,95703.81
2022-10-19T00:52:14.742Z,95698.78
2022-10-19T00:54:43.004Z,95703.63
2022-10-19T00:57:10.529Z,95695.88
2022-10-19T00:59:39.719Z,95702.03
2022-10-19T01:02:07.079Z,95698.22
2022-10-19T01:04:37.934Z,95701.72
2022-10-19T01:07:06.859Z,95703.31
2022-10-19T01:09:33.310Z,95699.84
2022-10-19T01:12:17.332Z,95694.69
2022-10-19T01:15:09.953Z,95693.69
2022-10-19T01:17:51.396Z,95690.44
2022-10-19T01:20:33.708Z,95694.94
2022-10-19T01:23:14.889Z,95704.13
2022-10-19T01:25:44.461Z,95700.34
2022-10-19T01:28:44.484Z,95696.19
2022-10-19T01:31:24.661Z,95702.78
2022-10-19T01:34:13.520Z,95704.16
2022-10-19T01:36:42.423Z,95699.88
2022-10-19T01:39:17.601Z,95698.00
2022-10-19T01:42:08.429Z,95696.69
2022-10-19T01:44:37.723Z,95690.97
2022-10-19T01:47:10.012Z,95685.06
2022-10-19T01:49:48.119Z,95683.03
2022-10-19T01:52:18.848Z,95678.28
2022-10-19T01:54:49.602Z,95676.56
2022-10-19T01:57:22.781Z,95672.97
2022-10-19T01:59:49.972Z,95680.59
2022-10-19T02:02:18.505Z,95673.19
2022-10-19T02:04:46.904Z,95671.56
2022-10-19T02:07:13.616Z,95669.06
2022-10-19T02:09:40.063Z,95661.94
2022-10-19T02:12:10.933Z,95662.00
2022-10-19T02:14:43.247Z,95655.78
2022-10-19T02:17:13.942Z,95658.72
2022-10-19T02:19:40.987Z,95658.78
2022-10-19T02:22:08.531Z,95665.47
2022-10-19T02:24:34.942Z,95657.53
2022-10-19T02:27:05.444Z,95657.34
2022-10-19T02:29:33.722Z,95654.31
2022-10-19T02:32:01.150Z,95653.44
2022-10-19T02:34:27.768Z,95652.25
2022-10-19T02:36:55.267Z,95646.97
2022-10-19T02:39:21.857Z,95649.81
2022-10-19T02:42:11.875Z,95650.13
2022-10-19T02:44:56.037Z,95653.13
2022-10-19T02:47:28.337Z,95645.78
2022-10-19T02:49:54.761Z,95654.28
2022-10-19T02:52:21.178Z,95653.19
2022-10-19T02:54:48.060Z,95653.78
2022-10-19T02:57:17.850Z,95645.44
2022-10-19T02:59:44.759Z,95653.22
2022-10-19T03:02:11.250Z,95648.59
2022-10-19T03:04:37.728Z,95639.47
2022-10-19T03:07:04.243Z,95634.59
2022-10-19T03:09:30.660Z,95647.28
2022-10-19T03:11:57.085Z,95640.44
2022-10-19T03:14:23.534Z,95643.16
2022-10-19T03:16:50.063Z,95636.53
2022-10-19T03:19:16.503Z,95634.69
2022-10-19T03:21:42.938Z,95633.72
2022-10-19T03:24:09.330Z,95631.25
2022-10-19T03:26:35.789Z,95629.19
2022-10-19T03:29:02.286Z,95627.78
2022-10-19T03:31:28.718Z,95625.38
2022-10-19T03:33:55.482Z,95624.56
2022-10-19T03:36:24.363Z,95628.53
2022-10-19T03:38:56.376Z,95627.97
2022-10-19T03:41:24.743Z,95638.41
2022-10-19T03:43:51.392Z,95632.19
2022-10-19T03:46:17.926Z,95639.63
2022-10-19T03:48:44.825Z,95638.00
2022-10-19T03:51:19.893Z,95632.34
2022-10-19T03:53:47.100Z,95647.16
2022-10-19T03:56:16.325Z,95644.97
2022-10-19T03:58:44.700Z,95659.38
2022-10-19T04:01:17.647Z,95657.94
2022-10-19T04:03:44.217Z,95644.84
2022-10-19T04:06:16.952Z,95652.16
2022-10-19T04:08:48.754Z,95644.78
2022-10-19T04:11:17.272Z,95649.63
2022-10-19T04:13:43.763Z,95649.78
2022-10-19T04:16:13.814Z,95636.59
2022-10-19T04:18:40.238Z,95634.50
2022-10-19T04:21:07.222Z,95641.75
2022-10-19T04:23:35.988Z,95641.84
2022-10-19T04:26:05.049Z,95642.25
2022-10-19T04:28:31.761Z,95644.44
2022-10-19T04:31:01.957Z,95641.03
2022-10-19T04:33:28.389Z,95642.41
2022-10-19T04:35:59.264Z,95634.88
2022-10-19T04:38:26.111Z,95639.16
2022-10-19T04:40:52.845Z,95634.88
2022-10-19T04:43:19.270Z,95635.13
2022-10-19T04:45:45.665Z,95632.47
2022-10-19T04:48:14.996Z,95630.84
2022-10-19T04:50:41.760Z,95632.47
2022-10-19T04:53:08.242Z,95621.94
2022-10-19T04:55:34.673Z,95625.69
2022-10-19T04:58:01.163Z,95608.28
2022-10-19T05:00:27.639Z,95608.03
2022-10-19T05:02:54.042Z,95617.41
2022-10-19T05:05:20.564Z,95611.19
2022-10-19T05:07:48.959Z,95611.19
2022-10-19T05:10:15.478Z,95606.19
2022-10-19T05:12:41.987Z,95612.88
2022-10-19T05:15:09.001Z,95614.19
2022-10-19T05:17:35.745Z,95612.31
2022-10-19T05:20:02.365Z,95607.63
2022-10-19T05:22:28.764Z,95597.63
2022-10-19T05:24:58.065Z,95605.13
2022-10-19T05:27:24.927Z,95600.66
2022-10-19T05:29:51.377Z,95607.09
2022-10-19T05:32:17.877Z,95608.50
2022-10-19T05:34:44.273Z,95600.69
2022-10-19T05:37:10.770Z,95594.63
2022-10-19T05:39:37.210Z,95587.75
2022-10-19T05:42:03.853Z,95590.34
2022-10-19T05:44:30.380Z,95583.13
2022-10-19T05:46:56.963Z,95579.97
2022-10-19T05:49:23.452Z,95581.84
2022-10-19T05:51:50.580Z,95582.00
2022-10-19T05:54:17.356Z,95575.88
2022-10-19T05:56:44.669Z,95579.91
2022-10-19T05:59:16.691Z,95587.03
2022-10-19T06:01:43.315Z,95586.78
2022-10-19T06:04:10.790Z,95591.56
2022-10-19T06:06:37.371Z,95591.25
2022-10-19T06:09:03.923Z,95589.13
2022-10-19T06:11:34.967Z,95598.75
2022-10-19T06:14:04.044Z,95596.09
2022-10-19T06:16:31.850Z,95599.56
2022-10-19T06:18:59.448Z,95602.81
2022-10-19T06:21:29.414Z,95594.53
2022-10-19T06:23:58.642Z,95595.19
2022-10-19T06:26:26.109Z,95598.91
2022-10-19T06:28:55.936Z,95599.41
2022-10-19T06:31:22.302Z,95605.63
2022-10-19T06:33:49.626Z,95604.38
2022-10-19T06:36:20.439Z,95603.69
2022-10-19T06:38:47.051Z,95607.91
2022-10-19T06:41:13.611Z,95611.84
2022-10-19T06:43:40.408Z,95614.94
2022-10-19T06:46:12.362Z,95620.69
2022-10-19T06:48:38.899Z,95619.56
2022-10-19T06:51:07.625Z,95622.84
2022-10-19T06:53:35.409Z,95622.28
2022-10-19T06:56:04.462Z,95621.56
2022-10-19T06:58:31.135Z,95623.59
2022-10-19T07:01:02.053Z,95628.66
2022-10-19T07:03:29.907Z,95627.66
2022-10-19T07:05:58.648Z,95632.03
2022-10-19T07:08:26.539Z,95633.16
2022-10-19T07:10:54.749Z,95634.56
2022-10-19T07:13:21.684Z,95631.44
2022-10-19T07:15:48.492Z,95634.44
2022-10-19T07:18:15.191Z,95633.06
2022-10-19T07:20:42.004Z,95630.94
2022-10-19T07:23:08.454Z,95630.53
2022-10-19T07:25:36.503Z,95625.44
2022-10-19T07:28:03.060Z,95630.16
2022-10-19T07:30:29.471Z,95622.47
2022-10-19T07:32:55.879Z,95631.69
2022-10-19T07:35:22.280Z,95627.78
2022-10-19T07:37:48.696Z,95624.81
2022-10-19T07:40:15.289Z,95632.31
2022-10-19T07:42:41.663Z,95620.59
2022-10-19T07:45:08.310Z,95631.84
2022-10-19T07:47:35.043Z,95627.31
2022-10-19T07:50:01.564Z,95621.66
2022-10-19T07:52:29.129Z,95633.28
2022-10-19T07:54:56.317Z,95627.28
2022-10-19T07:57:22.773Z,95635.78
2022-10-19T07:59:49.157Z,95632.97
2022-10-19T08:02:17.028Z,95630.09
2022-10-19T08:05:02.793Z,95630.03
2022-10-19T08:07:33.690Z,95632.25
2022-10-19T08:10:00.042Z,95630.03
2022-10-19T08:12:26.497Z,95629.81
2022-10-19T08:14:53.796Z,95627.38
2022-10-19T08:17:20.279Z,95633.28
2022-10-19T08:19:47.023Z,95635.16
2022-10-19T08:22:13.725Z,95639.69
2022-10-19T08:24:40.128Z,95643.16
2022-10-19T08:27:06.543Z,95645.34
2022-10-19T08:29:32.943Z,95630.13
2022-10-19T08:31:59.510Z,95635.00
2022-10-19T08:34:26.631Z,95639.59
2022-10-19T08:36:53.091Z,95631.91
2022-10-19T08:39:19.568Z,95630.47
2022-10-19T08:42:06.887Z,95624.06
2022-10-19T08:45:06.397Z,95620.91
2022-10-19T08:47:41.882Z,95630.56
2022-10-19T08:50:32.906Z,95627.94
2022-10-19T08:53:11.171Z,95629.81
2022-10-19T08:55:55.026Z,95633.78
2022-10-19T08:58:41.769Z,95629.63
2022-10-19T09:01:16.959Z,95622.56
2022-10-19T09:03:56.132Z,95630.69
2022-10-19T09:06:44.913Z,95620.53
2022-10-19T09:09:13.701Z,95623.72
2022-10-19T09:11:46.164Z,95621.59
2022-10-19T09:14:25.742Z,95622.81
2022-10-19T09:16:54.635Z,95624.41
2022-10-19T09:19:29.260Z,95619.22
2022-10-19T09:21:59.490Z,95619.28
2022-10-19T09:24:33.605Z,95622.78
2022-10-19T09:27:01.578Z,95619.53
2022-10-19T09:29:39.825Z,95620.41
2022-10-19T09:32:14.415Z,95618.19
2022-10-19T09:34:48.469Z,95615.88
2022-10-19T09:37:23.197Z,95614.06
2022-10-19T09:39:54.958Z,95611.06
2022-10-19T09:42:37.030Z,95610.16
2022-10-19T09:45:19.721Z,95611.53
2022-10-19T09:47:48.626Z,95604.56
2022-10-19T09:50:25.686Z,95615.81
2022-10-19T09:53:02.550Z,95613.22
2022-10-19T09:55:36.901Z,95610.22
2022-10-19T09:58:27.019Z,95603.25
2022-10-19T10:00:57.749Z,95603.47
2022-10-19T10:03:36.338Z,95605.09
2022-10-19T10:06:10.399Z,95596.09
2022-10-19T10:08:39.711Z,95602.81
2022-10-19T10:11:09.033Z,95598.69
2022-10-19T10:13:41.657Z,95602.00
2022-10-19T10:16:11.476Z,95598.63
2022-10-19T10:18:43.544Z,95596.56
2022-10-19T10:21:27.212Z,95588.63
2022-10-19T10:24:06.064Z,95590.97
2022-10-19T10:26:40.092Z,95587.63
2022-10-19T10:29:27.772Z,95589.38
2022-10-19T10:32:05.035Z,95597.00
2022-10-19T10:34:51.034Z,95592.50
2022-10-19T10:37:30.576Z,95588.00
2022-10-19T10:40:01.761Z,95584.34
2022-10-19T10:42:36.881Z,95579.03
2022-10-19T10:45:04.664Z,95586.81
2022-10-19T10:47:31.427Z,95579.44
2022-10-19T10:50:02.639Z,95582.19
2022-10-19T10:52:31.363Z,95582.91
2022-10-19T10:55:09.146Z,95578.38
2022-10-19T10:57:40.769Z,95578.28
2022-10-19T11:00:13.976Z,95579.38
2022-10-19T11:03:08.048Z,95569.88
2022-10-19T11:05:40.744Z,95564.50
2022-10-19T11:08:19.379Z,95559.09
2022-10-19T11:10:55.389Z,95563.31
2022-10-19T11:13:29.842Z,95560.06
2022-10-19T11:16:05.006Z,95554.50
2022-10-19T11:18:38.028Z,95551.50
2022-10-19T11:21:13.048Z,95550.38
2022-10-19T11:23:52.144Z,95551.81
2022-10-19T11:26:43.483Z,95547.41
2022-10-19T11:29:31.852Z,95545.75
2022-10-19T11:31:58.578Z,95540.53
2022-10-19T11:34:27.892Z,95537.69
2022-10-19T11:37:12.565Z,95529.34
2022-10-19T11:39:57.250Z,95532.84
2022-10-19T11:42:42.083Z,95525.31
2022-10-19T11:45:45.980Z,95517.94
2022-10-19T11:48:43.815Z,95511.50
2022-10-19T11:51:40.745Z,95514.25
2022-10-19T11:54:19.221Z,95508.34
2022-10-19T11:57:11.833Z,95505.97
2022-10-19T11:59:50.225Z,95494.50
2022-10-19T12:02:39.958Z,95484.06
2022-10-19T12:05:26.355Z,95488.78
2022-10-19T12:11:01.604Z,95494.06
2022-10-19T12:13:59.859Z,95489.94
2022-10-19T12:16:49.948Z,95487.22
2022-10-19T12:19:24.140Z,95483.28
2022-10-19T12:21:55.039Z,95480.41
2022-10-19T12:24:25.205Z,95478.53
2022-10-19T12:26:54.811Z,95470.94
2022-10-19T12:29:28.298Z,95476.78
2022-10-19T12:31:57.676Z,95471.78
2022-10-19T12:34:42.256Z,95473.59
2022-10-19T12:37:15.968Z,95470.84
2022-10-19T12:39:57.730Z,95459.25
2022-10-19T12:42:36.116Z,95460.00
2022-10-19T12:45:18.352Z,95450.50
2022-10-19T12:48:12.625Z,95448.53
2022-10-19T12:50:48.113Z,95446.72
2022-10-19T12:56:05.864Z,95446.44
2022-10-19T12:58:43.486Z,95439.91
2022-10-19T13:01:24.677Z,95438.03
2022-10-19T13:04:06.669Z,95438.00
2022-10-19T13:06:40.817Z,95432.59
2022-10-19T13:09:19.531Z,95433.56
2022-10-19T13:12:21.400Z,95427.53
2022-10-19T13:14:51.524Z,95421.06
2022-10-19T13:17:36.915Z,95422.25
2022-10-19T13:20:15.277Z,95417.97
2022-10-19T13:22:45.013Z,95421.56
2022-10-19T13:25:23.774Z,95409.97
2022-10-19T13:27:52.264Z,95413.72
2022-10-19T13:30:38.127Z,95413.22
2022-10-19T13:33:28.487Z,95414.56
2022-10-19T13:36:02.293Z,95404.47
2022-10-19T13:38:28.842Z,95408.72
2022-10-19T13:40:55.257Z,95397.69
2022-10-19T13:43:32.553Z,95406.63
2022-10-19T13:46:10.513Z,95404.53
2022-10-19T13:49:01.475Z,95390.78
2022-10-19T13:51:37.206Z,95381.22
2022-10-19T13:54:27.978Z,95391.72
2022-10-19T13:57:18.950Z,95385.31
2022-10-19T14:00:07.211Z,95383.72
2022-10-19T14:03:20.692Z,95379.72
2022-10-19T14:06:02.260Z,95382.31
2022-10-19T14:08:35.087Z,95374.78
2022-10-19T14:11:20.399Z,95376.41
2022-10-19T14:14:07.332Z,95365.94
2022-10-19T14:16:33.729Z,95359.16
2022-10-19T14:19:00.315Z,95365.16
2022-10-19T14:21:32.512Z,95365.13
2022-10-19T14:23:59.837Z,95357.88
2022-10-19T14:26:31.696Z,95357.19
2022-10-19T14:28:59.841Z,95357.13
2022-10-19T14:31:35.073Z,95352.56
2022-10-19T14:34:04.200Z,95350.69
2022-10-19T14:36:37.952Z,95357.03
2022-10-19T14:39:05.724Z,95349.28
2022-10-19T14:41:32.670Z,95343.56
2022-10-19T14:44:02.772Z,95350.78
2022-10-19T14:46:31.200Z,95338.97
2022-10-19T14:49:03.202Z,95346.19
2022-10-19T14:52:01.063Z,95351.25
2022-10-19T14:54:36.369Z,95342.84
2022-10-19T14:57:15.822Z,95346.13
2022-10-19T14:59:57.837Z,95345.50
2022-10-19T15:02:29.355Z,95340.94
2022-10-19T15:04:59.195Z,95346.88
2022-10-19T15:07:37.023Z,95348.09
2022-10-19T15:10:08.103Z,95346.00
2022-10-19T15:12:38.428Z,95336.84
2022-10-19T15:15:16.524Z,95342.38
2022-10-19T15:18:02.419Z,95343.75
2022-10-19T15:20:44.031Z,95344.84
2022-10-19T15:23:36.391Z,95339.28
2022-10-19T15:26:17.375Z,95339.03
2022-10-19T15:28:45.237Z,95339.63
2022-10-19T15:31:29.151Z,95333.97
2022-10-19T15:34:00.669Z,95326.53
2022-10-19T15:36:29.564Z,95326.00
2022-10-19T15:39:18.282Z,95324.66
2022-10-19T15:41:51.354Z,95332.16
2022-10-19T15:44:41.937Z,95329.22
2022-10-19T15:47:14.576Z,95312.63
2022-10-19T15:49:40.952Z,95310.78
2022-10-19T15:52:15.967Z,95318.69
2022-10-19T15:54:42.934Z,95321.69
2022-10-19T15:57:25.094Z,95318.78
2022-10-19T15:59:51.640Z,95315.31
2022-10-19T16:02:18.111Z,95319.59
2022-10-19T16:04:44.516Z,95322.97
2022-10-19T16:07:16.692Z,95316.66
2022-10-19T16:09:43.143Z,95315.41
2022-10-19T16:12:11.208Z,95311.25
2022-10-19T16:14:37.632Z,95320.09
2022-10-19T16:17:04.649Z,95311.00
2022-10-19T16:19:31.095Z,95314.75
2022-10-19T16:21:57.580Z,95318.25
2022-10-19T16:24:24.027Z,95318.50
2022-10-19T16:26:50.510Z,95320.38
2022-10-19T16:29:16.965Z,95308.34
2022-10-19T16:31:43.359Z,95302.72
2022-10-19T16:34:09.777Z,95311.03
2022-10-19T16:36:36.247Z,95300.88
2022-10-19T16:39:04.350Z,95308.09
2022-10-19T16:41:31.393Z,95301.13
2022-10-19T16:43:57.955Z,95300.38
2022-10-19T16:46:24.994Z,95304.63
2022-10-19T16:48:52.061Z,95309.16
2022-10-19T16:51:26.133Z,95316.38
2022-10-19T16:53:56.998Z,95310.22
2022-10-19T16:56:24.648Z,95303.00
2022-10-19T16:58:53.888Z,95309.97
2022-10-19T17:01:20.547Z,95311.53
2022-10-19T17:03:48.058Z,95326.25
2022-10-19T17:06:15.946Z,95330.78
2022-10-19T17:09:23.316Z,95328.84
2022-10-19T17:11:31.978Z,95320.63
2022-10-19T17:13:59.611Z,95316.88
2022-10-19T17:16:28.075Z,95319.31
2022-10-19T17:18:56.429Z,95317.69
2022-10-19T17:21:26.440Z,95319.31
2022-10-19T17:23:58.943Z,95313.16
2022-10-19T17:26:27.520Z,95317.44
2022-10-19T17:28:55.109Z,95324.38
2022-10-19T17:31:22.127Z,95323.31
2022-10-19T17:33:51.428Z,95318.25
2022-10-19T17:36:27.539Z,95319.03
2022-10-19T17:38:55.191Z,95319.56
2022-10-19T17:41:22.212Z,95324.13
2022-10-19T17:43:51.772Z,95320.91
2022-10-19T17:46:20.997Z,95313.94
2022-10-19T17:48:48.343Z,95322.78
2022-10-19T17:51:17.847Z,95314.75
2022-10-19T17:53:45.648Z,95320.06
2022-10-19T17:56:15.385Z,95322.22
2022-10-19T17:58:42.731Z,95319.00
2022-10-19T18:01:11.623Z,95327.56
2022-10-19T18:03:39.259Z,95329.19
2022-10-19T18:06:12.100Z,95328.66
2022-10-19T18:08:41.676Z,95326.78
2022-10-19T18:11:13.821Z,95324.66
2022-10-19T18:13:41.314Z,95323.59
2022-10-19T18:16:14.528Z,95330.53
2022-10-19T18:18:43.105Z,95324.06
2022-10-19T18:21:11.922Z,95321.16
2022-10-19T18:23:39.276Z,95318.47
2022-10-19T18:26:09.031Z,95316.59
2022-10-19T18:28:35.855Z,95315.56
2022-10-19T18:31:09.809Z,95321.72
2022-10-19T18:33:36.780Z,95298.97
2022-10-19T18:36:05.032Z,95305.13
2022-10-19T18:38:32.886Z,95312.06
2022-10-19T18:41:07.942Z,95296.81
2022-10-19T18:43:34.524Z,95304.28
2022-10-19T18:46:01.282Z,95292.81
2022-10-19T18:48:29.840Z,95293.34
2022-10-19T18:50:58.020Z,95288.25
2022-10-19T18:53:25.745Z,95288.25
2022-10-19T18:56:05.249Z,95293.34
2022-10-19T18:58:32.387Z,95285.03
2022-10-19T19:01:06.479Z,95291.75
2022-10-19T19:03:33.513Z,95301.63
2022-10-19T19:06:09.484Z,95289.88
2022-10-19T19:08:36.164Z,95287.75
2022-10-19T19:11:20.780Z,95279.72
2022-10-19T19:13:53.739Z,95282.69
2022-10-19T19:16:20.986Z,95278.13
2022-10-19T19:18:47.854Z,95279.16
2022-10-19T19:21:25.683Z,95286.34
2022-10-19T19:23:54.176Z,95285.59
2022-10-19T19:26:23.071Z,95279.47
2022-10-19T19:28:51.647Z,95274.34
2022-10-19T19:31:19.652Z,95274.31
2022-10-19T19:33:47.387Z,95271.16
2022-10-19T19:36:16.004Z,95277.31
2022-10-19T19:38:42.752Z,95267.09
2022-10-19T19:41:12.078Z,95267.91
2022-10-19T19:43:39.589Z,95265.28
2022-10-19T19:46:12.579Z,95266.06
2022-10-19T19:48:40.754Z,95266.03
2022-10-19T19:51:09.284Z,95260.66
2022-10-19T19:53:36.887Z,95260.69
2022-10-19T19:56:03.782Z,95262.06
2022-10-19T19:58:30.246Z,95259.38
2022-10-19T20:00:56.719Z,95257.50
2022-10-19T20:03:23.323Z,95248.69
2022-10-19T20:05:49.751Z,95246.28
2022-10-19T20:08:16.358Z,95247.09
2022-10-19T20:10:43.456Z,95251.38
2022-10-19T20:13:10.153Z,95251.59
2022-10-19T20:15:39.603Z,95250.00
2022-10-19T20:18:06.176Z,95248.94
2022-10-19T20:20:32.704Z,95248.81
2022-10-19T20:22:59.142Z,95246.50
2022-10-19T20:25:25.680Z,95252.41
2022-10-19T20:27:52.205Z,95256.13
2022-10-19T20:30:18.760Z,95247.31
2022-10-19T20:32:45.256Z,95245.19
2022-10-19T20:35:11.800Z,95251.34
2022-10-19T20:37:38.250Z,95257.47
2022-10-19T20:40:08.572Z,95249.19
2022-10-19T20:42:35.664Z,95251.81
2022-10-19T20:45:02.406Z,95246.50
2022-10-19T20:47:29.433Z,95261.44
2022-10-19T20:49:56.086Z,95259.94
2022-10-19T20:52:22.553Z,95260.19
2022-10-19T20:54:49.260Z,95262.47
2022-10-19T20:57:15.908Z,95255.00
2022-10-19T20:59:43.893Z,95261.69
2022-10-19T21:02:11.595Z,95256.88
2022-10-19T21:04:38.066Z,95249.41
2022-10-19T21:07:05.006Z,95250.50
2022-10-19T21:09:32.003Z,95243.25
2022-10-19T21:11:59.087Z,95245.38
2022-10-19T21:14:28.790Z,95233.88
2022-10-19T21:16:58.011Z,95222.91
2022-10-19T21:19:25.879Z,95229.88
2022-10-19T21:22:03.854Z,95224.53
2022-10-19T21:24:35.513Z,95225.31
2022-10-19T21:27:07.536Z,95222.66
2022-10-19T21:29:34.246Z,95223.16
2022-10-19T21:32:00.745Z,95220.25
2022-10-19T21:34:28.866Z,95214.34
2022-10-19T21:36:56.281Z,95211.09
2022-10-19T21:39:22.811Z,95206.63
2022-10-19T21:41:49.703Z,95205.28
2022-10-19T21:44:17.789Z,95199.94
2022-10-19T21:46:46.861Z,95193.22
2022-10-19T21:49:13.661Z,95207.63
2022-10-19T21:51:48.530Z,95202.25
2022-10-19T21:54:17.774Z,95197.50
2022-10-19T21:56:45.344Z,95195.03
2022-10-19T21:59:12.360Z,95194.22
2022-10-19T22:01:41.084Z,95189.97
2022-10-19T22:04:12.627Z,95185.41
2022-10-19T22:06:39.760Z,95185.94
2022-10-19T22:09:08.615Z,95190.19
2022-10-19T22:11:35.204Z,95186.22
2022-10-19T22:14:04.079Z,95181.94
2022-10-19T22:16:32.356Z,95185.00
2022-10-19T22:18:59.177Z,95169.34
2022-10-19T22:21:28.953Z,95169.34
2022-10-19T22:23:57.773Z,95163.47
2022-10-19T22:26:27.361Z,95155.44
2022-10-19T22:28:55.665Z,95145.28
2022-10-19T22:31:22.224Z,95142.09
2022-10-19T22:33:48.815Z,95143.69
2022-10-19T22:36:16.074Z,95148.00
2022-10-19T22:38:42.491Z,95147.59
2022-10-19T22:41:09.039Z,95143.75
2022-10-19T22:43:35.459Z,95142.41
2022-10-19T22:46:01.948Z,95144.94
2022-10-19T22:48:28.314Z,95152.63
2022-10-19T22:50:55.684Z,95147.94
2022-10-19T22:53:23.300Z,95148.06
2022-10-19T22:55:50.376Z,95144.44
2022-10-19T22:58:17.253Z,95140.88
2022-10-19T23:00:43.667Z,95148.34
2022-10-19T23:03:13.772Z,95150.19
2022-10-19T23:05:40.204Z,95153.16
2022-10-19T23:08:06.591Z,95148.38
2022-10-19T23:10:33.299Z,95142.25
2022-10-19T23:12:59.727Z,95145.72
2022-10-19T23:15:26.242Z,95139.06
2022-10-19T23:17:52.691Z,95152.59
2022-10-19T23:20:19.116Z,95157.13
2022-10-19T23:22:45.530Z,95146.25
2022-10-19T23:25:11.925Z,95154.25
2022-10-19T23:27:38.731Z,95147.81
2022-10-19T23:30:05.652Z,95148.91
2022-10-19T23:32:32.091Z,95151.88
2022-10-19T23:34:58.508Z,95145.88
2022-10-19T23:37:24.882Z,95143.97
2022-10-19T23:39:51.276Z,95146.63
2022-10-19T23:42:17.827Z,95146.69
2022-10-19T23:44:44.225Z,95138.63
2022-10-19T23:47:10.691Z,95138.66
2022-10-19T23:49:37.093Z,95141.00
2022-10-19T23:52:03.693Z,95138.88
2022-10-19T23:54:30.180Z,95136.78
2022-10-19T23:56:56.670Z,95147.72
2022-10-19T23:59:23.155Z,95144.31
